sensor_id;sensor_type;location;lat;lon;timestamp;temperature;humidity
33271;DHT22;53180;51.344;6.152;2022-09-28T00:01:20;7.90;96.90
33271;DHT22;53180;51.344;6.152;2022-09-28T00:03:52;7.90;96.90
33271;DHT22;53180;51.344;6.152;2022-09-28T00:06:24;7.90;96.90
33271;DHT22;53180;51.344;6.152;2022-09-28T00:08:53;7.90;96.90
33271;DHT22;53180;51.344;6.152;2022-09-28T00:11:23;7.90;96.90
33271;DHT22;53180;51.344;6.152;2022-09-28T00:13:53;7.90;96.90
33271;DHT22;53180;51.344;6.152;2022-09-28T00:16:25;7.90;96.90
33271;DHT22;53180;51.344;6.152;2022-09-28T00:18:56;7.90;96.90
33271;DHT22;53180;51.344;6.152;2022-09-28T00:21:26;7.90;96.90
33271;DHT22;53180;51.344;6.152;2022-09-28T00:23:56;7.80;96.90
33271;DHT22;53180;51.344;6.152;2022-09-28T00:26:49;7.80;96.90
33271;DHT22;53180;51.344;6.152;2022-09-28T00:29:21;7.90;96.90
33271;DHT22;53180;51.344;6.152;2022-09-28T00:31:52;7.90;96.90
33271;DHT22;53180;51.344;6.152;2022-09-28T00:34:28;7.90;96.90
33271;DHT22;53180;51.344;6.152;2022-09-28T00:36:58;7.80;96.90
33271;DHT22;53180;51.344;6.152;2022-09-28T00:39:27;7.80;96.90
33271;DHT22;53180;51.344;6.152;2022-09-28T00:41:57;7.90;96.90
33271;DHT22;53180;51.344;6.152;2022-09-28T00:44:45;7.80;96.90
33271;DHT22;53180;51.344;6.152;2022-09-28T00:47:35;7.80;96.90
33271;DHT22;53180;51.344;6.152;2022-09-28T00:50:17;7.80;96.90
33271;DHT22;53180;51.344;6.152;2022-09-28T00:52:50;7.70;96.90
33271;DHT22;53180;51.344;6.152;2022-09-28T00:55:25;7.70;96.90
33271;DHT22;53180;51.344;6.152;2022-09-28T00:58:00;7.70;96.90
33271;DHT22;53180;51.344;6.152;2022-09-28T01:00:31;7.70;96.90
33271;DHT22;53180;51.344;6.152;2022-09-28T01:02:59;7.70;96.90
33271;DHT22;53180;51.344;6.152;2022-09-28T01:05:29;7.70;96.90
33271;DHT22;53180;51.344;6.152;2022-09-28T01:07:58;7.70;96.90
33271;DHT22;53180;51.344;6.152;2022-09-28T01:10:28;7.70;96.90
33271;DHT22;53180;51.344;6.152;2022-09-28T01:12:57;7.70;96.90
33271;DHT22;53180;51.344;6.152;2022-09-28T01:15:27;7.70;97.00
33271;DHT22;53180;51.344;6.152;2022-09-28T01:18:06;7.70;97.00
33271;DHT22;53180;51.344;6.152;2022-09-28T01:21:00;7.70;97.00
33271;DHT22;53180;51.344;6.152;2022-09-28T01:26:55;7.70;97.00
33271;DHT22;53180;51.344;6.152;2022-09-28T01:29:35;7.70;97.00
33271;DHT22;53180;51.344;6.152;2022-09-28T01:32:19;7.70;97.00
33271;DHT22;53180;51.344;6.152;2022-09-28T01:34:56;7.70;97.00
33271;DHT22;53180;51.344;6.152;2022-09-28T01:37:31;7.70;97.00
33271;DHT22;53180;51.344;6.152;2022-09-28T01:40:04;7.70;97.00
33271;DHT22;53180;51.344;6.152;2022-09-28T01:42:37;7.70;97.00
33271;DHT22;53180;51.344;6.152;2022-09-28T01:45:13;7.70;97.00
33271;DHT22;53180;51.344;6.152;2022-09-28T01:47:44;7.60;97.00
33271;DHT22;53180;51.344;6.152;2022-09-28T01:50:15;7.60;97.00
33271;DHT22;53180;51.344;6.152;2022-09-28T01:52:49;7.60;97.00
33271;DHT22;53180;51.344;6.152;2022-09-28T01:55:24;7.60;97.00
33271;DHT22;53180;51.344;6.152;2022-09-28T01:58:01;7.60;97.00
33271;DHT22;53180;51.344;6.152;2022-09-28T02:00:34;7.60;97.00
33271;DHT22;53180;51.344;6.152;2022-09-28T02:03:10;7.60;97.00
33271;DHT22;53180;51.344;6.152;2022-09-28T02:05:45;7.60;97.00
33271;DHT22;53180;51.344;6.152;2022-09-28T02:08:20;7.60;97.00
33271;DHT22;53180;51.344;6.152;2022-09-28T02:10:56;7.60;97.00
33271;DHT22;53180;51.344;6.152;2022-09-28T02:13:32;7.60;97.00
33271;DHT22;53180;51.344;6.152;2022-09-28T02:16:05;7.60;97.00
33271;DHT22;53180;51.344;6.152;2022-09-28T02:18:37;7.60;97.00
33271;DHT22;53180;51.344;6.152;2022-09-28T02:21:10;7.60;97.00
33271;DHT22;53180;51.344;6.152;2022-09-28T02:23:50;7.60;97.00
33271;DHT22;53180;51.344;6.152;2022-09-28T02:26:22;7.60;97.00
33271;DHT22;53180;51.344;6.152;2022-09-28T02:28:55;7.70;97.00
33271;DHT22;53180;51.344;6.152;2022-09-28T02:31:24;7.70;97.00
33271;DHT22;53180;51.344;6.152;2022-09-28T02:33:54;7.70;97.00
33271;DHT22;53180;51.344;6.152;2022-09-28T02:36:23;7.70;97.00
33271;DHT22;53180;51.344;6.152;2022-09-28T02:38:52;7.70;97.10
33271;DHT22;53180;51.344;6.152;2022-09-28T02:41:30;7.80;97.10
33271;DHT22;53180;51.344;6.152;2022-09-28T02:44:17;7.70;97.10
33271;DHT22;53180;51.344;6.152;2022-09-28T02:46:59;7.80;97.10
33271;DHT22;53180;51.344;6.152;2022-09-28T02:49:36;7.80;97.10
33271;DHT22;53180;51.344;6.152;2022-09-28T02:52:19;7.80;97.10
33271;DHT22;53180;51.344;6.152;2022-09-28T02:55:18;7.80;97.10
33271;DHT22;53180;51.344;6.152;2022-09-28T02:58:00;7.80;97.10
33271;DHT22;53180;51.344;6.152;2022-09-28T03:00:43;7.80;97.10
33271;DHT22;53180;51.344;6.152;2022-09-28T03:03:19;7.80;97.10
33271;DHT22;53180;51.344;6.152;2022-09-28T03:05:54;7.80;97.10
33271;DHT22;53180;51.344;6.152;2022-09-28T03:08:29;7.80;97.10
33271;DHT22;53180;51.344;6.152;2022-09-28T03:11:02;7.80;97.10
33271;DHT22;53180;51.344;6.152;2022-09-28T03:13:34;7.80;97.10
33271;DHT22;53180;51.344;6.152;2022-09-28T03:16:12;7.80;97.10
33271;DHT22;53180;51.344;6.152;2022-09-28T03:18:41;7.80;97.10
33271;DHT22;53180;51.344;6.152;2022-09-28T03:21:10;7.70;97.10
33271;DHT22;53180;51.344;6.152;2022-09-28T03:23:39;7.70;97.10
33271;DHT22;53180;51.344;6.152;2022-09-28T03:26:09;7.70;97.10
33271;DHT22;53180;51.344;6.152;2022-09-28T03:28:39;7.80;97.10
33271;DHT22;53180;51.344;6.152;2022-09-28T03:31:07;7.80;97.10
33271;DHT22;53180;51.344;6.152;2022-09-28T03:33:37;7.70;97.10
33271;DHT22;53180;51.344;6.152;2022-09-28T03:36:06;7.70;97.10
33271;DHT22;53180;51.344;6.152;2022-09-28T03:38:35;7.70;97.10
33271;DHT22;53180;51.344;6.152;2022-09-28T03:41:04;7.70;97.10
33271;DHT22;53180;51.344;6.152;2022-09-28T03:43:33;7.70;97.10
33271;DHT22;53180;51.344;6.152;2022-09-28T03:46:01;7.80;97.10
33271;DHT22;53180;51.344;6.152;2022-09-28T03:48:32;7.80;97.10
33271;DHT22;53180;51.344;6.152;2022-09-28T03:51:04;7.80;97.10
33271;DHT22;53180;51.344;6.152;2022-09-28T03:53:35;7.80;97.10
33271;DHT22;53180;51.344;6.152;2022-09-28T03:56:05;7.80;97.10
33271;DHT22;53180;51.344;6.152;2022-09-28T03:58:35;7.90;97.10
33271;DHT22;53180;51.344;6.152;2022-09-28T04:01:04;7.90;97.10
33271;DHT22;53180;51.344;6.152;2022-09-28T04:03:38;7.90;97.10
33271;DHT22;53180;51.344;6.152;2022-09-28T04:06:08;7.90;97.10
33271;DHT22;53180;51.344;6.152;2022-09-28T04:08:37;7.90;97.10
33271;DHT22;53180;51.344;6.152;2022-09-28T04:11:05;7.80;97.10
33271;DHT22;53180;51.344;6.152;2022-09-28T04:13:33;7.80;97.10
33271;DHT22;53180;51.344;6.152;2022-09-28T04:16:02;7.80;97.10
33271;DHT22;53180;51.344;6.152;2022-09-28T04:18:32;7.80;97.10
33271;DHT22;53180;51.344;6.152;2022-09-28T04:21:02;7.80;97.10
33271;DHT22;53180;51.344;6.152;2022-09-28T04:23:35;7.80;97.10
33271;DHT22;53180;51.344;6.152;2022-09-28T04:26:05;7.90;97.10
33271;DHT22;53180;51.344;6.152;2022-09-28T04:28:34;7.90;97.10
33271;DHT22;53180;51.344;6.152;2022-09-28T04:31:19;7.90;97.10
33271;DHT22;53180;51.344;6.152;2022-09-28T04:33:48;7.90;97.10
33271;DHT22;53180;51.344;6.152;2022-09-28T04:36:16;7.80;97.10
33271;DHT22;53180;51.344;6.152;2022-09-28T04:38:46;7.80;97.10
33271;DHT22;53180;51.344;6.152;2022-09-28T04:41:19;7.90;97.10
33271;DHT22;53180;51.344;6.152;2022-09-28T04:43:48;7.90;97.10
33271;DHT22;53180;51.344;6.152;2022-09-28T04:46:18;7.90;97.10
33271;DHT22;53180;51.344;6.152;2022-09-28T04:48:46;7.90;97.10
33271;DHT22;53180;51.344;6.152;2022-09-28T04:51:14;7.90;97.10
33271;DHT22;53180;51.344;6.152;2022-09-28T04:53:42;7.90;97.10
33271;DHT22;53180;51.344;6.152;2022-09-28T04:56:13;7.90;97.10
33271;DHT22;53180;51.344;6.152;2022-09-28T04:58:42;7.90;97.10
33271;DHT22;53180;51.344;6.152;2022-09-28T05:01:18;7.90;97.10
33271;DHT22;53180;51.344;6.152;2022-09-28T05:03:50;7.90;97.10
33271;DHT22;53180;51.344;6.152;2022-09-28T05:06:18;7.90;97.10
33271;DHT22;53180;51.344;6.152;2022-09-28T05:08:48;7.90;97.10
33271;DHT22;53180;51.344;6.152;2022-09-28T05:11:17;7.80;97.10
33271;DHT22;53180;51.344;6.152;2022-09-28T05:13:47;7.80;97.10
33271;DHT22;53180;51.344;6.152;2022-09-28T05:16:16;7.80;97.10
33271;DHT22;53180;51.344;6.152;2022-09-28T05:18:46;7.80;97.10
33271;DHT22;53180;51.344;6.152;2022-09-28T05:21:14;7.80;97.10
33271;DHT22;53180;51.344;6.152;2022-09-28T05:23:46;7.80;97.10
33271;DHT22;53180;51.344;6.152;2022-09-28T05:26:14;7.80;97.10
33271;DHT22;53180;51.344;6.152;2022-09-28T05:28:44;7.80;97.10
33271;DHT22;53180;51.344;6.152;2022-09-28T05:31:12;7.80;97.10
33271;DHT22;53180;51.344;6.152;2022-09-28T05:33:41;7.80;97.10
33271;DHT22;53180;51.344;6.152;2022-09-28T05:36:10;7.70;97.10
33271;DHT22;53180;51.344;6.152;2022-09-28T05:38:38;7.70;97.10
33271;DHT22;53180;51.344;6.152;2022-09-28T05:41:06;7.70;97.10
33271;DHT22;53180;51.344;6.152;2022-09-28T05:43:35;7.70;97.10
33271;DHT22;53180;51.344;6.152;2022-09-28T05:46:05;7.70;97.10
33271;DHT22;53180;51.344;6.152;2022-09-28T05:48:34;7.60;97.10
33271;DHT22;53180;51.344;6.152;2022-09-28T05:51:02;7.60;97.00
33271;DHT22;53180;51.344;6.152;2022-09-28T05:53:31;7.60;97.00
33271;DHT22;53180;51.344;6.152;2022-09-28T05:55:59;7.60;97.00
33271;DHT22;53180;51.344;6.152;2022-09-28T05:58:28;7.60;97.10
33271;DHT22;53180;51.344;6.152;2022-09-28T06:00:57;7.60;97.10
33271;DHT22;53180;51.344;6.152;2022-09-28T06:03:27;7.60;97.10
33271;DHT22;53180;51.344;6.152;2022-09-28T06:05:55;7.70;97.10
33271;DHT22;53180;51.344;6.152;2022-09-28T06:08:23;7.70;97.10
33271;DHT22;53180;51.344;6.152;2022-09-28T06:10:52;7.60;97.00
33271;DHT22;53180;51.344;6.152;2022-09-28T06:13:20;7.70;97.00
33271;DHT22;53180;51.344;6.152;2022-09-28T06:15:48;7.70;97.10
33271;DHT22;53180;51.344;6.152;2022-09-28T06:18:17;7.70;97.10
33271;DHT22;53180;51.344;6.152;2022-09-28T06:20:46;7.70;97.10
33271;DHT22;53180;51.344;6.152;2022-09-28T06:23:15;7.70;97.10
33271;DHT22;53180;51.344;6.152;2022-09-28T06:25:43;7.80;97.10
33271;DHT22;53180;51.344;6.152;2022-09-28T06:28:13;7.80;97.10
33271;DHT22;53180;51.344;6.152;2022-09-28T06:30:42;7.80;97.10
33271;DHT22;53180;51.344;6.152;2022-09-28T06:33:14;7.80;97.10
33271;DHT22;53180;51.344;6.152;2022-09-28T06:35:42;7.90;97.10
33271;DHT22;53180;51.344;6.152;2022-09-28T06:38:12;8.10;97.10
33271;DHT22;53180;51.344;6.152;2022-09-28T06:40:40;8.20;97.10
33271;DHT22;53180;51.344;6.152;2022-09-28T06:43:10;8.20;97.10
33271;DHT22;53180;51.344;6.152;2022-09-28T06:45:42;8.20;97.10
33271;DHT22;53180;51.344;6.152;2022-09-28T06:48:10;8.20;97.10
33271;DHT22;53180;51.344;6.152;2022-09-28T06:50:40;8.20;97.10
33271;DHT22;53180;51.344;6.152;2022-09-28T06:53:12;8.20;97.10
33271;DHT22;53180;51.344;6.152;2022-09-28T06:55:42;8.30;97.10
33271;DHT22;53180;51.344;6.152;2022-09-28T06:58:15;8.30;97.10
33271;DHT22;53180;51.344;6.152;2022-09-28T07:00:46;8.30;97.10
33271;DHT22;53180;51.344;6.152;2022-09-28T07:03:17;8.40;97.10
33271;DHT22;53180;51.344;6.152;2022-09-28T07:05:48;8.40;97.00
33271;DHT22;53180;51.344;6.152;2022-09-28T07:08:20;8.50;97.10
33271;DHT22;53180;51.344;6.152;2022-09-28T07:10:51;8.50;97.10
33271;DHT22;53180;51.344;6.152;2022-09-28T07:13:22;8.50;97.10
33271;DHT22;53180;51.344;6.152;2022-09-28T07:16:12;8.60;97.10
33271;DHT22;53180;51.344;6.152;2022-09-28T07:18:40;8.60;97.10
33271;DHT22;53180;51.344;6.152;2022-09-28T07:21:08;8.70;97.10
33271;DHT22;53180;51.344;6.152;2022-09-28T07:23:54;8.80;97.10
33271;DHT22;53180;51.344;6.152;2022-09-28T07:26:22;9.00;97.20
33271;DHT22;53180;51.344;6.152;2022-09-28T07:28:51;9.10;97.10
33271;DHT22;53180;51.344;6.152;2022-09-28T07:31:20;9.10;97.10
33271;DHT22;53180;51.344;6.152;2022-09-28T07:33:50;9.20;97.10
33271;DHT22;53180;51.344;6.152;2022-09-28T07:36:19;9.20;97.10
33271;DHT22;53180;51.344;6.152;2022-09-28T07:38:48;9.20;97.10
33271;DHT22;53180;51.344;6.152;2022-09-28T07:41:18;9.20;97.10
33271;DHT22;53180;51.344;6.152;2022-09-28T07:43:58;9.30;97.10
33271;DHT22;53180;51.344;6.152;2022-09-28T07:46:32;9.40;97.00
33271;DHT22;53180;51.344;6.152;2022-09-28T07:49:00;9.50;97.00
33271;DHT22;53180;51.344;6.152;2022-09-28T07:51:36;9.60;96.90
33271;DHT22;53180;51.344;6.152;2022-09-28T07:54:04;9.80;97.00
33271;DHT22;53180;51.344;6.152;2022-09-28T07:56:34;9.90;96.90
33271;DHT22;53180;51.344;6.152;2022-09-28T07:59:02;9.90;96.90
33271;DHT22;53180;51.344;6.152;2022-09-28T08:01:30;10.00;96.80
33271;DHT22;53180;51.344;6.152;2022-09-28T08:03:59;10.20;96.80
33271;DHT22;53180;51.344;6.152;2022-09-28T08:06:29;10.20;96.70
33271;DHT22;53180;51.344;6.152;2022-09-28T08:08:57;10.30;96.40
33271;DHT22;53180;51.344;6.152;2022-09-28T08:11:27;10.30;96.20
33271;DHT22;53180;51.344;6.152;2022-09-28T08:13:57;10.40;96.00
33271;DHT22;53180;51.344;6.152;2022-09-28T08:16:26;10.50;95.80
33271;DHT22;53180;51.344;6.152;2022-09-28T08:18:56;10.50;95.60
33271;DHT22;53180;51.344;6.152;2022-09-28T08:21:24;10.40;95.30
33271;DHT22;53180;51.344;6.152;2022-09-28T08:24:10;10.50;95.30
33271;DHT22;53180;51.344;6.152;2022-09-28T08:26:39;10.70;95.40
33271;DHT22;53180;51.344;6.152;2022-09-28T08:29:09;10.80;94.90
33271;DHT22;53180;51.344;6.152;2022-09-28T08:31:38;10.90;94.30
33271;DHT22;53180;51.344;6.152;2022-09-28T08:34:06;11.00;94.40
33271;DHT22;53180;51.344;6.152;2022-09-28T08:36:34;11.10;94.10
33271;DHT22;53180;51.344;6.152;2022-09-28T08:39:04;11.20;93.90
33271;DHT22;53180;51.344;6.152;2022-09-28T08:41:38;11.40;94.30
33271;DHT22;53180;51.344;6.152;2022-09-28T08:44:14;11.50;94.10
33271;DHT22;53180;51.344;6.152;2022-09-28T08:46:53;11.60;93.60
33271;DHT22;53180;51.344;6.152;2022-09-28T08:49:25;11.70;93.20
33271;DHT22;53180;51.344;6.152;2022-09-28T08:51:59;11.80;93.10
33271;DHT22;53180;51.344;6.152;2022-09-28T08:54:36;11.90;93.60
33271;DHT22;53180;51.344;6.152;2022-09-28T08:57:10;11.90;92.80
33271;DHT22;53180;51.344;6.152;2022-09-28T08:59:47;12.00;92.70
33271;DHT22;53180;51.344;6.152;2022-09-28T09:02:20;12.00;92.90
33271;DHT22;53180;51.344;6.152;2022-09-28T09:04:51;12.00;92.40
33271;DHT22;53180;51.344;6.152;2022-09-28T09:07:32;12.00;91.90
33271;DHT22;53180;51.344;6.152;2022-09-28T09:10:31;11.80;91.80
33271;DHT22;53180;51.344;6.152;2022-09-28T09:13:27;11.80;92.50
33271;DHT22;53180;51.344;6.152;2022-09-28T09:16:10;11.80;92.40
33271;DHT22;53180;51.344;6.152;2022-09-28T09:18:50;11.80;92.00
33271;DHT22;53180;51.344;6.152;2022-09-28T09:21:38;11.90;91.70
33271;DHT22;53180;51.344;6.152;2022-09-28T09:24:20;12.10;91.70
33271;DHT22;53180;51.344;6.152;2022-09-28T09:27:13;12.00;91.60
33271;DHT22;53180;51.344;6.152;2022-09-28T09:30:02;12.00;91.40
33271;DHT22;53180;51.344;6.152;2022-09-28T09:32:55;12.20;91.20
33271;DHT22;53180;51.344;6.152;2022-09-28T09:35:53;12.20;91.00
33271;DHT22;53180;51.344;6.152;2022-09-28T09:38:42;12.20;91.30
33271;DHT22;53180;51.344;6.152;2022-09-28T09:41:24;12.10;91.30
33271;DHT22;53180;51.344;6.152;2022-09-28T09:44:15;12.10;91.90
33271;DHT22;53180;51.344;6.152;2022-09-28T09:47:07;12.20;91.40
33271;DHT22;53180;51.344;6.152;2022-09-28T09:49:42;12.40;91.50
33271;DHT22;53180;51.344;6.152;2022-09-28T09:52:17;12.50;91.10
33271;DHT22;53180;51.344;6.152;2022-09-28T09:54:53;12.40;90.30
33271;DHT22;53180;51.344;6.152;2022-09-28T09:57:26;12.60;91.00
33271;DHT22;53180;51.344;6.152;2022-09-28T09:59:58;12.50;89.90
33271;DHT22;53180;51.344;6.152;2022-09-28T10:02:30;12.50;90.30
33271;DHT22;53180;51.344;6.152;2022-09-28T10:05:05;12.50;89.10
33271;DHT22;53180;51.344;6.152;2022-09-28T10:07:46;12.30;89.30
33271;DHT22;53180;51.344;6.152;2022-09-28T10:10:21;12.30;90.20
33271;DHT22;53180;51.344;6.152;2022-09-28T10:12:52;12.20;90.00
33271;DHT22;53180;51.344;6.152;2022-09-28T10:15:24;12.10;90.50
33271;DHT22;53180;51.344;6.152;2022-09-28T10:17:55;12.10;90.00
33271;DHT22;53180;51.344;6.152;2022-09-28T10:20:27;12.00;90.60
33271;DHT22;53180;51.344;6.152;2022-09-28T10:22:57;12.00;90.80
33271;DHT22;53180;51.344;6.152;2022-09-28T10:25:29;11.90;90.20
33271;DHT22;53180;51.344;6.152;2022-09-28T10:28:00;11.90;90.00
33271;DHT22;53180;51.344;6.152;2022-09-28T10:30:37;11.90;89.70
33271;DHT22;53180;51.344;6.152;2022-09-28T10:33:26;11.90;89.40
33271;DHT22;53180;51.344;6.152;2022-09-28T10:35:58;11.90;88.80
33271;DHT22;53180;51.344;6.152;2022-09-28T10:38:29;11.90;88.60
33271;DHT22;53180;51.344;6.152;2022-09-28T10:41:00;11.90;89.10
33271;DHT22;53180;51.344;6.152;2022-09-28T10:43:37;12.20;88.20
33271;DHT22;53180;51.344;6.152;2022-09-28T10:46:08;12.40;88.70
33271;DHT22;53180;51.344;6.152;2022-09-28T10:48:48;12.80;88.30
33271;DHT22;53180;51.344;6.152;2022-09-28T10:51:20;13.20;86.80
33271;DHT22;53180;51.344;6.152;2022-09-28T10:54:13;13.30;85.60
33271;DHT22;53180;51.344;6.152;2022-09-28T10:56:44;13.50;86.10
33271;DHT22;53180;51.344;6.152;2022-09-28T10:59:37;13.40;86.60
33271;DHT22;53180;51.344;6.152;2022-09-28T11:02:18;13.30;86.20
33271;DHT22;53180;51.344;6.152;2022-09-28T11:04:53;13.10;87.40
33271;DHT22;53180;51.344;6.152;2022-09-28T11:07:26;13.00;85.70
33271;DHT22;53180;51.344;6.152;2022-09-28T11:09:57;12.80;86.40
33271;DHT22;53180;51.344;6.152;2022-09-28T11:12:31;12.70;86.80
33271;DHT22;53180;51.344;6.152;2022-09-28T11:15:04;12.90;86.80
33271;DHT22;53180;51.344;6.152;2022-09-28T11:17:35;13.20;87.00
33271;DHT22;53180;51.344;6.152;2022-09-28T11:20:28;13.50;86.20
33271;DHT22;53180;51.344;6.152;2022-09-28T11:23:17;13.70;84.90
33271;DHT22;53180;51.344;6.152;2022-09-28T11:26:01;13.70;85.60
33271;DHT22;53180;51.344;6.152;2022-09-28T11:28:34;13.50;85.20
33271;DHT22;53180;51.344;6.152;2022-09-28T11:31:05;13.30;85.00
33271;DHT22;53180;51.344;6.152;2022-09-28T11:33:36;13.60;86.00
33271;DHT22;53180;51.344;6.152;2022-09-28T11:36:18;13.70;83.20
33271;DHT22;53180;51.344;6.152;2022-09-28T11:39:03;13.40;83.30
33271;DHT22;53180;51.344;6.152;2022-09-28T11:41:46;13.30;84.20
33271;DHT22;53180;51.344;6.152;2022-09-28T11:44:37;13.20;84.70
33271;DHT22;53180;51.344;6.152;2022-09-28T11:47:18;13.00;85.20
33271;DHT22;53180;51.344;6.152;2022-09-28T11:50:19;12.90;86.90
33271;DHT22;53180;51.344;6.152;2022-09-28T11:53:09;12.80;86.40
33271;DHT22;53180;51.344;6.152;2022-09-28T11:55:44;12.80;87.20
33271;DHT22;53180;51.344;6.152;2022-09-28T11:58:21;12.80;87.50
33271;DHT22;53180;51.344;6.152;2022-09-28T12:01:00;12.80;88.00
33271;DHT22;53180;51.344;6.152;2022-09-28T12:03:39;12.80;86.50
33271;DHT22;53180;51.344;6.152;2022-09-28T12:06:13;12.90;87.30
33271;DHT22;53180;51.344;6.152;2022-09-28T12:08:47;12.90;87.30
33271;DHT22;53180;51.344;6.152;2022-09-28T12:11:26;12.90;86.70
33271;DHT22;53180;51.344;6.152;2022-09-28T12:14:00;12.80;86.90
33271;DHT22;53180;51.344;6.152;2022-09-28T12:16:34;12.80;86.40
33271;DHT22;53180;51.344;6.152;2022-09-28T12:19:28;12.80;85.60
33271;DHT22;53180;51.344;6.152;2022-09-28T12:22:03;12.80;87.10
33271;DHT22;53180;51.344;6.152;2022-09-28T12:24:39;12.70;86.60
33271;DHT22;53180;51.344;6.152;2022-09-28T12:27:16;12.70;87.00
33271;DHT22;53180;51.344;6.152;2022-09-28T12:29:53;12.70;86.20
33271;DHT22;53180;51.344;6.152;2022-09-28T12:32:28;12.70;85.60
33271;DHT22;53180;51.344;6.152;2022-09-28T12:35:01;12.70;87.30
33271;DHT22;53180;51.344;6.152;2022-09-28T12:37:42;12.80;86.60
33271;DHT22;53180;51.344;6.152;2022-09-28T12:40:35;13.00;85.80
33271;DHT22;53180;51.344;6.152;2022-09-28T12:43:31;13.10;86.00
33271;DHT22;53180;51.344;6.152;2022-09-28T12:46:10;13.20;84.40
33271;DHT22;53180;51.344;6.152;2022-09-28T12:52:29;13.20;85.70
33271;DHT22;53180;51.344;6.152;2022-09-28T12:55:21;13.20;84.20
33271;DHT22;53180;51.344;6.152;2022-09-28T12:57:58;13.10;85.40
33271;DHT22;53180;51.344;6.152;2022-09-28T13:00:39;13.10;84.50
33271;DHT22;53180;51.344;6.152;2022-09-28T13:06:54;13.20;84.30
33271;DHT22;53180;51.344;6.152;2022-09-28T13:09:25;13.40;84.30
33271;DHT22;53180;51.344;6.152;2022-09-28T13:12:04;13.50;83.80
33271;DHT22;53180;51.344;6.152;2022-09-28T13:18:05;13.60;83.00
33271;DHT22;53180;51.344;6.152;2022-09-28T13:20:50;13.50;83.00
33271;DHT22;53180;51.344;6.152;2022-09-28T13:23:28;13.60;81.70
33271;DHT22;53180;51.344;6.152;2022-09-28T13:26:08;13.50;81.70
33271;DHT22;53180;51.344;6.152;2022-09-28T13:28:41;13.40;82.00
33271;DHT22;53180;51.344;6.152;2022-09-28T13:31:11;13.30;82.20
33271;DHT22;53180;51.344;6.152;2022-09-28T13:33:48;13.30;80.90
33271;DHT22;53180;51.344;6.152;2022-09-28T13:36:36;13.30;81.60
33271;DHT22;53180;51.344;6.152;2022-09-28T13:39:45;13.20;83.00
33271;DHT22;53180;51.344;6.152;2022-09-28T13:45:32;13.00;86.30
33271;DHT22;53180;51.344;6.152;2022-09-28T13:48:15;12.80;87.30
33271;DHT22;53180;51.344;6.152;2022-09-28T13:51:18;12.70;88.50
33271;DHT22;53180;51.344;6.152;2022-09-28T13:54:08;12.50;89.20
33271;DHT22;53180;51.344;6.152;2022-09-28T13:57:08;12.50;88.90
33271;DHT22;53180;51.344;6.152;2022-09-28T13:59:51;12.40;90.10
33271;DHT22;53180;51.344;6.152;2022-09-28T14:02:30;12.40;90.20
33271;DHT22;53180;51.344;6.152;2022-09-28T14:05:04;12.40;90.60
33271;DHT22;53180;51.344;6.152;2022-09-28T14:07:57;12.50;90.00
33271;DHT22;53180;51.344;6.152;2022-09-28T14:10:47;12.50;89.90
33271;DHT22;53180;51.344;6.152;2022-09-28T14:13:56;12.60;90.10
33271;DHT22;53180;51.344;6.152;2022-09-28T14:16:26;12.60;90.00
33271;DHT22;53180;51.344;6.152;2022-09-28T14:19:02;12.60;90.00
33271;DHT22;53180;51.344;6.152;2022-09-28T14:21:53;12.60;90.80
33271;DHT22;53180;51.344;6.152;2022-09-28T14:24:38;12.60;90.70
33271;DHT22;53180;51.344;6.152;2022-09-28T14:27:33;12.50;91.20
33271;DHT22;53180;51.344;6.152;2022-09-28T14:30:22;12.40;89.10
33271;DHT22;53180;51.344;6.152;2022-09-28T14:32:54;12.20;88.20
33271;DHT22;53180;51.344;6.152;2022-09-28T14:35:28;11.90;88.20
33271;DHT22;53180;51.344;6.152;2022-09-28T14:38:02;11.60;87.50
33271;DHT22;53180;51.344;6.152;2022-09-28T14:41:02;11.50;88.50
33271;DHT22;53180;51.344;6.152;2022-09-28T14:44:01;11.20;89.00
33271;DHT22;53180;51.344;6.152;2022-09-28T14:46:41;11.20;90.40
33271;DHT22;53180;51.344;6.152;2022-09-28T14:49:43;11.20;91.20
33271;DHT22;53180;51.344;6.152;2022-09-28T14:55:16;11.10;92.40
33271;DHT22;53180;51.344;6.152;2022-09-28T14:57:55;11.10;92.60
33271;DHT22;53180;51.344;6.152;2022-09-28T15:00:26;11.20;93.00
33271;DHT22;53180;51.344;6.152;2022-09-28T15:03:01;11.20;93.20
33271;DHT22;53180;51.344;6.152;2022-09-28T15:05:41;11.30;93.20
33271;DHT22;53180;51.344;6.152;2022-09-28T15:08:13;11.30;93.20
33271;DHT22;53180;51.344;6.152;2022-09-28T15:10:45;11.30;93.20
33271;DHT22;53180;51.344;6.152;2022-09-28T15:13:21;11.30;93.10
33271;DHT22;53180;51.344;6.152;2022-09-28T15:15:54;11.30;93.00
33271;DHT22;53180;51.344;6.152;2022-09-28T15:18:53;11.30;93.10
33271;DHT22;53180;51.344;6.152;2022-09-28T15:21:35;11.30;93.10
33271;DHT22;53180;51.344;6.152;2022-09-28T15:24:22;11.30;93.10
33271;DHT22;53180;51.344;6.152;2022-09-28T15:26:53;11.30;93.30
33271;DHT22;53180;51.344;6.152;2022-09-28T15:29:24;11.30;93.30
33271;DHT22;53180;51.344;6.152;2022-09-28T15:31:57;11.30;93.20
33271;DHT22;53180;51.344;6.152;2022-09-28T15:34:27;11.30;93.20
33271;DHT22;53180;51.344;6.152;2022-09-28T15:37:16;11.30;93.30
33271;DHT22;53180;51.344;6.152;2022-09-28T15:39:48;11.20;93.30
33271;DHT22;53180;51.344;6.152;2022-09-28T15:42:17;11.20;93.30
33271;DHT22;53180;51.344;6.152;2022-09-28T15:45:03;11.30;93.40
33271;DHT22;53180;51.344;6.152;2022-09-28T15:47:53;11.20;93.50
33271;DHT22;53180;51.344;6.152;2022-09-28T15:50:26;11.20;93.30
33271;DHT22;53180;51.344;6.152;2022-09-28T15:52:57;11.20;92.80
33271;DHT22;53180;51.344;6.152;2022-09-28T15:55:29;11.10;92.80
33271;DHT22;53180;51.344;6.152;2022-09-28T15:58:12;11.20;92.90
33271;DHT22;53180;51.344;6.152;2022-09-28T16:00:45;11.10;93.00
33271;DHT22;53180;51.344;6.152;2022-09-28T16:03:21;11.10;92.90
33271;DHT22;53180;51.344;6.152;2022-09-28T16:06:03;11.10;93.10
33271;DHT22;53180;51.344;6.152;2022-09-28T16:08:38;11.10;92.90
33271;DHT22;53180;51.344;6.152;2022-09-28T16:11:13;11.00;91.90
33271;DHT22;53180;51.344;6.152;2022-09-28T16:13:51;11.00;91.20
33271;DHT22;53180;51.344;6.152;2022-09-28T16:16:26;10.80;91.10
33271;DHT22;53180;51.344;6.152;2022-09-28T16:18:57;10.90;91.40
33271;DHT22;53180;51.344;6.152;2022-09-28T16:21:37;10.80;91.30
33271;DHT22;53180;51.344;6.152;2022-09-28T16:24:20;10.80;91.50
33271;DHT22;53180;51.344;6.152;2022-09-28T16:26:56;10.80;91.70
33271;DHT22;53180;51.344;6.152;2022-09-28T16:29:32;10.70;91.80
33271;DHT22;53180;51.344;6.152;2022-09-28T16:32:32;10.70;91.80
33271;DHT22;53180;51.344;6.152;2022-09-28T16:35:16;10.70;92.10
33271;DHT22;53180;51.344;6.152;2022-09-28T16:37:48;10.70;92.10
33271;DHT22;53180;51.344;6.152;2022-09-28T16:40:23;10.60;91.90
33271;DHT22;53180;51.344;6.152;2022-09-28T16:42:54;10.60;92.00
33271;DHT22;53180;51.344;6.152;2022-09-28T16:45:25;10.60;92.00
33271;DHT22;53180;51.344;6.152;2022-09-28T16:47:56;10.50;91.80
33271;DHT22;53180;51.344;6.152;2022-09-28T16:50:25;10.50;92.20